sensor_id;sensor_type;location;lat;lon;timestamp;P1;durP1;ratioP1;P2;durP2;ratioP2
42338;SDS011;27993;45.392;10.918;2024-03-23T00:54:38;23.67;;;10.25;;
42338;SDS011;27993;45.392;10.918;2024-03-23T00:57:08;22.40;;;12.40;;
42338;SDS011;27993;45.392;10.918;2024-03-23T00:59:39;31.55;;;11.80;;
42338;SDS011;27993;45.392;10.918;2024-03-23T01:02:10;22.40;;;11.93;;
42338;SDS011;27993;45.392;10.918;2024-03-23T01:04:41;24.03;;;11.53;;
42338;SDS011;27993;45.392;10.918;2024-03-23T01:07:11;27.60;;;12.40;;
42338;SDS011;27993;45.392;10.918;2024-03-23T01:09:42;23.47;;;12.27;;
42338;SDS011;27993;45.392;10.918;2024-03-23T01:12:12;23.87;;;11.90;;
42338;SDS011;27993;45.392;10.918;2024-03-23T01:14:43;26.13;;;12.03;;
42338;SDS011;27993;45.392;10.918;2024-03-23T01:17:14;18.60;;;9.97;;
42338;SDS011;27993;45.392;10.918;2024-03-23T01:19:44;23.67;;;11.93;;
42338;SDS011;27993;45.392;10.918;2024-03-23T01:22:15;21.23;;;11.90;;
42338;SDS011;27993;45.392;10.918;2024-03-23T01:24:45;22.27;;;11.10;;
42338;SDS011;27993;45.392;10.918;2024-03-23T01:27:16;19.43;;;9.87;;
42338;SDS011;27993;45.392;10.918;2024-03-23T01:29:47;22.43;;;12.27;;
42338;SDS011;27993;45.392;10.918;2024-03-23T01:32:18;21.63;;;10.70;;
42338;SDS011;27993;45.392;10.918;2024-03-23T01:34:49;21.48;;;11.43;;
42338;SDS011;27993;45.392;10.918;2024-03-23T01:37:19;20.47;;;11.33;;
42338;SDS011;27993;45.392;10.918;2024-03-23T01:39:50;21.80;;;10.67;;
42338;SDS011;27993;45.392;10.918;2024-03-23T01:42:21;22.42;;;11.48;;
42338;SDS011;27993;45.392;10.918;2024-03-23T01:44:51;21.07;;;10.80;;
42338;SDS011;27993;45.392;10.918;2024-03-23T01:47:22;19.97;;;10.43;;
42338;SDS011;27993;45.392;10.918;2024-03-23T01:49:53;23.73;;;11.43;;
42338;SDS011;27993;45.392;10.918;2024-03-23T01:52:23;24.42;;;12.55;;
42338;SDS011;27993;45.392;10.918;2024-03-23T01:54:54;18.08;;;11.68;;
42338;SDS011;27993;45.392;10.918;2024-03-23T01:57:25;22.70;;;11.30;;
42338;SDS011;27993;45.392;10.918;2024-03-23T01:59:55;24.17;;;12.30;;
42338;SDS011;27993;45.392;10.918;2024-03-23T02:02:26;29.63;;;10.20;;
42338;SDS011;27993;45.392;10.918;2024-03-23T02:04:57;27.43;;;11.13;;
42338;SDS011;27993;45.392;10.918;2024-03-23T02:07:28;27.37;;;11.33;;
42338;SDS011;27993;45.392;10.918;2024-03-23T02:09:58;27.67;;;12.10;;
42338;SDS011;27993;45.392;10.918;2024-03-23T02:12:29;27.20;;;12.03;;
42338;SDS011;27993;45.392;10.918;2024-03-23T02:15:00;24.83;;;11.37;;
42338;SDS011;27993;45.392;10.918;2024-03-23T02:17:33;21.58;;;11.73;;
42338;SDS011;27993;45.392;10.918;2024-03-23T02:20:04;25.70;;;10.55;;
42338;SDS011;27993;45.392;10.918;2024-03-23T02:25:07;23.08;;;11.07;;
42338;SDS011;27993;45.392;10.918;2024-03-23T02:27:37;20.40;;;10.63;;
42338;SDS011;27993;45.392;10.918;2024-03-23T02:30:10;18.67;;;10.05;;
42338;SDS011;27993;45.392;10.918;2024-03-23T02:32:40;23.93;;;11.97;;
42338;SDS011;27993;45.392;10.918;2024-03-23T02:35:11;19.30;;;10.40;;
42338;SDS011;27993;45.392;10.918;2024-03-23T02:37:42;18.63;;;10.33;;
42338;SDS011;27993;45.392;10.918;2024-03-23T02:40:12;18.87;;;9.10;;
42338;SDS011;27993;45.392;10.918;2024-03-23T02:42:43;21.73;;;11.13;;
42338;SDS011;27993;45.392;10.918;2024-03-23T02:45:14;22.03;;;12.23;;
42338;SDS011;27993;45.392;10.918;2024-03-23T02:47:44;24.93;;;11.60;;
42338;SDS011;27993;45.392;10.918;2024-03-23T02:50:15;22.43;;;9.83;;
42338;SDS011;27993;45.392;10.918;2024-03-23T02:52:46;25.57;;;11.47;;
42338;SDS011;27993;45.392;10.918;2024-03-23T02:55:17;22.87;;;11.40;;
42338;SDS011;27993;45.392;10.918;2024-03-23T02:57:47;19.60;;;10.93;;
42338;SDS011;27993;45.392;10.918;2024-03-23T03:00:18;20.07;;;10.00;;
42338;SDS011;27993;45.392;10.918;2024-03-23T03:02:49;16.93;;;9.97;;
42338;SDS011;27993;45.392;10.918;2024-03-23T03:05:19;35.73;;;10.37;;
42338;SDS011;27993;45.392;10.918;2024-03-23T03:07:50;26.67;;;10.60;;
42338;SDS011;27993;45.392;10.918;2024-03-23T03:10:20;22.40;;;10.87;;
42338;SDS011;27993;45.392;10.918;2024-03-23T03:12:51;25.93;;;10.60;;
42338;SDS011;27993;45.392;10.918;2024-03-23T03:15:21;28.70;;;12.10;;
42338;SDS011;27993;45.392;10.918;2024-03-23T03:17:52;19.70;;;11.50;;
42338;SDS011;27993;45.392;10.918;2024-03-23T03:20:23;22.80;;;11.37;;
42338;SDS011;27993;45.392;10.918;2024-03-23T03:22:54;26.45;;;11.32;;
42338;SDS011;27993;45.392;10.918;2024-03-23T03:25:24;22.23;;;9.97;;
42338;SDS011;27993;45.392;10.918;2024-03-23T03:27:55;21.30;;;10.53;;
42338;SDS011;27993;45.392;10.918;2024-03-23T03:30:26;24.00;;;11.00;;
42338;SDS011;27993;45.392;10.918;2024-03-23T03:32:56;19.93;;;10.73;;
42338;SDS011;27993;45.392;10.918;2024-03-23T03:35:27;30.40;;;11.33;;
42338;SDS011;27993;45.392;10.918;2024-03-23T03:37:57;23.00;;;11.33;;
42338;SDS011;27993;45.392;10.918;2024-03-23T03:40:28;22.73;;;9.83;;
42338;SDS011;27993;45.392;10.918;2024-03-23T03:42:59;19.03;;;9.47;;
42338;SDS011;27993;45.392;10.918;2024-03-23T03:45:32;23.15;;;10.50;;
42338;SDS011;27993;45.392;10.918;2024-03-23T03:48:02;19.93;;;9.10;;
42338;SDS011;27993;45.392;10.918;2024-03-23T03:50:34;24.93;;;10.70;;
42338;SDS011;27993;45.392;10.918;2024-03-23T03:53:04;23.33;;;10.68;;
42338;SDS011;27993;45.392;10.918;2024-03-23T03:55:35;20.90;;;10.33;;
42338;SDS011;27993;45.392;10.918;2024-03-23T03:58:06;19.37;;;9.80;;
42338;SDS011;27993;45.392;10.918;2024-03-23T04:00:36;21.50;;;10.13;;
42338;SDS011;27993;45.392;10.918;2024-03-23T04:03:07;18.77;;;9.90;;
42338;SDS011;27993;45.392;10.918;2024-03-23T04:05:38;19.97;;;9.97;;
42338;SDS011;27993;45.392;10.918;2024-03-23T04:08:08;14.60;;;8.27;;
42338;SDS011;27993;45.392;10.918;2024-03-23T04:10:39;20.50;;;9.87;;
42338;SDS011;27993;45.392;10.918;2024-03-23T04:13:10;23.42;;;9.88;;
42338;SDS011;27993;45.392;10.918;2024-03-23T04:15:41;19.00;;;9.60;;
42338;SDS011;27993;45.392;10.918;2024-03-23T04:18:12;24.15;;;9.82;;
42338;SDS011;27993;45.392;10.918;2024-03-23T04:20:44;20.80;;;10.38;;
42338;SDS011;27993;45.392;10.918;2024-03-23T04:23:14;25.23;;;8.83;;
42338;SDS011;27993;45.392;10.918;2024-03-23T04:25:45;17.97;;;8.87;;
42338;SDS011;27993;45.392;10.918;2024-03-23T04:28:16;23.27;;;11.13;;
42338;SDS011;27993;45.392;10.918;2024-03-23T04:30:46;16.53;;;8.70;;
42338;SDS011;27993;45.392;10.918;2024-03-23T04:33:17;19.33;;;10.47;;
42338;SDS011;27993;45.392;10.918;2024-03-23T04:35:49;17.73;;;9.33;;
42338;SDS011;27993;45.392;10.918;2024-03-23T04:38:20;24.25;;;10.93;;
42338;SDS011;27993;45.392;10.918;2024-03-23T04:40:54;19.70;;;9.80;;
42338;SDS011;27993;45.392;10.918;2024-03-23T04:43:28;17.02;;;8.90;;
42338;SDS011;27993;45.392;10.918;2024-03-23T04:45:59;15.77;;;10.07;;
42338;SDS011;27993;45.392;10.918;2024-03-23T04:48:30;21.87;;;10.97;;
42338;SDS011;27993;45.392;10.918;2024-03-23T04:51:00;16.73;;;8.77;;
42338;SDS011;27993;45.392;10.918;2024-03-23T04:53:31;30.20;;;10.70;;
42338;SDS011;27993;45.392;10.918;2024-03-23T04:56:03;19.70;;;9.20;;
42338;SDS011;27993;45.392;10.918;2024-03-23T04:58:34;20.30;;;8.80;;
42338;SDS011;27993;45.392;10.918;2024-03-23T05:01:05;21.43;;;8.90;;
42338;SDS011;27993;45.392;10.918;2024-03-23T05:03:35;19.63;;;8.97;;
42338;SDS011;27993;45.392;10.918;2024-03-23T05:06:06;17.97;;;10.93;;
42338;SDS011;27993;45.392;10.918;2024-03-23T05:08:36;20.00;;;10.17;;
42338;SDS011;27993;45.392;10.918;2024-03-23T05:11:07;21.13;;;11.00;;
42338;SDS011;27993;45.392;10.918;2024-03-23T05:13:38;21.27;;;9.87;;
42338;SDS011;27993;45.392;10.918;2024-03-23T05:16:12;16.65;;;9.55;;
42338;SDS011;27993;45.392;10.918;2024-03-23T05:18:42;27.83;;;10.43;;
42338;SDS011;27993;45.392;10.918;2024-03-23T05:21:13;19.30;;;9.40;;
42338;SDS011;27993;45.392;10.918;2024-03-23T05:23:43;22.00;;;11.17;;
42338;SDS011;27993;45.392;10.918;2024-03-23T05:26:14;18.40;;;9.53;;
42338;SDS011;27993;45.392;10.918;2024-03-23T05:28:45;17.93;;;8.57;;
42338;SDS011;27993;45.392;10.918;2024-03-23T05:31:25;15.67;;;9.60;;
42338;SDS011;27993;45.392;10.918;2024-03-23T05:33:57;24.98;;;10.07;;
42338;SDS011;27993;45.392;10.918;2024-03-23T05:36:27;21.17;;;8.80;;
42338;SDS011;27993;45.392;10.918;2024-03-23T05:38:58;24.40;;;10.77;;
42338;SDS011;27993;45.392;10.918;2024-03-23T05:41:28;26.93;;;10.43;;
42338;SDS011;27993;45.392;10.918;2024-03-23T05:43:59;24.33;;;10.70;;
42338;SDS011;27993;45.392;10.918;2024-03-23T05:46:30;20.23;;;9.38;;
42338;SDS011;27993;45.392;10.918;2024-03-23T05:49:01;16.53;;;10.00;;
42338;SDS011;27993;45.392;10.918;2024-03-23T05:51:32;21.70;;;9.45;;
42338;SDS011;27993;45.392;10.918;2024-03-23T05:54:03;18.73;;;10.43;;
42338;SDS011;27993;45.392;10.918;2024-03-23T05:56:34;25.98;;;10.85;;
42338;SDS011;27993;45.392;10.918;2024-03-23T05:59:05;20.20;;;9.90;;
42338;SDS011;27993;45.392;10.918;2024-03-23T06:01:36;25.25;;;10.27;;
42338;SDS011;27993;45.392;10.918;2024-03-23T06:04:08;19.02;;;10.27;;
42338;SDS011;27993;45.392;10.918;2024-03-23T06:06:39;20.93;;;10.13;;
42338;SDS011;27993;45.392;10.918;2024-03-23T06:09:10;17.87;;;9.98;;
42338;SDS011;27993;45.392;10.918;2024-03-23T06:11:40;18.70;;;9.53;;
42338;SDS011;27993;45.392;10.918;2024-03-23T06:14:11;20.10;;;10.37;;
42338;SDS011;27993;45.392;10.918;2024-03-23T06:16:41;33.90;;;12.35;;
42338;SDS011;27993;45.392;10.918;2024-03-23T06:19:12;41.47;;;17.17;;
42338;SDS011;27993;45.392;10.918;2024-03-23T06:21:43;45.20;;;20.33;;
42338;SDS011;27993;45.392;10.918;2024-03-23T06:24:14;22.75;;;11.15;;
42338;SDS011;27993;45.392;10.918;2024-03-23T06:26:44;24.77;;;12.30;;
42338;SDS011;27993;45.392;10.918;2024-03-23T06:29:15;24.00;;;9.50;;
42338;SDS011;27993;45.392;10.918;2024-03-23T06:31:51;39.83;;;12.10;;
42338;SDS011;27993;45.392;10.918;2024-03-23T06:34:25;27.60;;;12.63;;
42338;SDS011;27993;45.392;10.918;2024-03-23T06:36:57;15.95;;;11.25;;
42338;SDS011;27993;45.392;10.918;2024-03-23T06:39:27;23.62;;;11.00;;
42338;SDS011;27993;45.392;10.918;2024-03-23T06:41:58;29.00;;;11.27;;
42338;SDS011;27993;45.392;10.918;2024-03-23T06:44:29;21.30;;;10.88;;
42338;SDS011;27993;45.392;10.918;2024-03-23T06:49:30;27.10;;;11.57;;
42338;SDS011;27993;45.392;10.918;2024-03-23T06:52:01;25.65;;;12.02;;
42338;SDS011;27993;45.392;10.918;2024-03-23T06:54:31;29.48;;;13.20;;
42338;SDS011;27993;45.392;10.918;2024-03-23T06:57:02;27.52;;;15.60;;
42338;SDS011;27993;45.392;10.918;2024-03-23T06:59:33;26.75;;;16.52;;
42338;SDS011;27993;45.392;10.918;2024-03-23T07:02:03;20.70;;;13.45;;
42338;SDS011;27993;45.392;10.918;2024-03-23T07:04:35;39.47;;;19.37;;
42338;SDS011;27993;45.392;10.918;2024-03-23T07:07:06;23.90;;;13.70;;
42338;SDS011;27993;45.392;10.918;2024-03-23T07:09:37;24.80;;;14.20;;
42338;SDS011;27993;45.392;10.918;2024-03-23T07:12:08;21.27;;;13.57;;
42338;SDS011;27993;45.392;10.918;2024-03-23T07:14:39;24.02;;;14.32;;
42338;SDS011;27993;45.392;10.918;2024-03-23T07:17:10;25.48;;;15.27;;
42338;SDS011;27993;45.392;10.918;2024-03-23T07:19:41;24.37;;;14.48;;
42338;SDS011;27993;45.392;10.918;2024-03-23T07:22:11;23.12;;;12.73;;
42338;SDS011;27993;45.392;10.918;2024-03-23T07:24:42;17.60;;;13.30;;
42338;SDS011;27993;45.392;10.918;2024-03-23T07:27:14;19.85;;;13.88;;
42338;SDS011;27993;45.392;10.918;2024-03-23T07:29:45;20.30;;;13.65;;
42338;SDS011;27993;45.392;10.918;2024-03-23T07:32:15;20.92;;;13.85;;
42338;SDS011;27993;45.392;10.918;2024-03-23T07:34:46;26.83;;;14.80;;
42338;SDS011;27993;45.392;10.918;2024-03-23T07:37:16;24.15;;;12.82;;
42338;SDS011;27993;45.392;10.918;2024-03-23T07:39:47;27.02;;;14.75;;
42338;SDS011;27993;45.392;10.918;2024-03-23T07:42:18;24.20;;;14.57;;
42338;SDS011;27993;45.392;10.918;2024-03-23T07:44:49;25.23;;;14.48;;
42338;SDS011;27993;45.392;10.918;2024-03-23T07:47:20;19.40;;;13.38;;
42338;SDS011;27993;45.392;10.918;2024-03-23T07:49:51;25.70;;;15.15;;
42338;SDS011;27993;45.392;10.918;2024-03-23T07:52:21;33.30;;;14.15;;
42338;SDS011;27993;45.392;10.918;2024-03-23T07:54:52;23.25;;;14.50;;
42338;SDS011;27993;45.392;10.918;2024-03-23T07:57:22;29.55;;;15.35;;
42338;SDS011;27993;45.392;10.918;2024-03-23T07:59:53;23.98;;;13.90;;
42338;SDS011;27993;45.392;10.918;2024-03-23T08:02:23;23.55;;;12.90;;
42338;SDS011;27993;45.392;10.918;2024-03-23T08:04:54;20.85;;;15.48;;
42338;SDS011;27993;45.392;10.918;2024-03-23T08:07:24;21.83;;;14.32;;
42338;SDS011;27993;45.392;10.918;2024-03-23T08:09:55;21.73;;;13.60;;
42338;SDS011;27993;45.392;10.918;2024-03-23T08:12:26;19.23;;;11.65;;
42338;SDS011;27993;45.392;10.918;2024-03-23T08:14:56;15.68;;;10.75;;
42338;SDS011;27993;45.392;10.918;2024-03-23T08:17:27;18.30;;;13.40;;
42338;SDS011;27993;45.392;10.918;2024-03-23T08:19:58;24.05;;;13.18;;
42338;SDS011;27993;45.392;10.918;2024-03-23T08:22:28;24.90;;;14.50;;
42338;SDS011;27993;45.392;10.918;2024-03-23T08:24:59;20.75;;;13.07;;
42338;SDS011;27993;45.392;10.918;2024-03-23T08:27:29;18.58;;;12.30;;
42338;SDS011;27993;45.392;10.918;2024-03-23T08:30:00;23.35;;;13.40;;
42338;SDS011;27993;45.392;10.918;2024-03-23T08:32:31;28.20;;;14.30;;
42338;SDS011;27993;45.392;10.918;2024-03-23T08:35:01;23.48;;;13.27;;
42338;SDS011;27993;45.392;10.918;2024-03-23T08:37:32;17.17;;;12.73;;
42338;SDS011;27993;45.392;10.918;2024-03-23T08:40:10;26.05;;;14.13;;
42338;SDS011;27993;45.392;10.918;2024-03-23T08:42:41;18.90;;;13.30;;
42338;SDS011;27993;45.392;10.918;2024-03-23T08:45:12;26.92;;;13.95;;
42338;SDS011;27993;45.392;10.918;2024-03-23T08:47:43;24.02;;;13.43;;
42338;SDS011;27993;45.392;10.918;2024-03-23T08:50:13;17.80;;;12.57;;
42338;SDS011;27993;45.392;10.918;2024-03-23T08:52:44;18.33;;;13.73;;
42338;SDS011;27993;45.392;10.918;2024-03-23T08:55:14;19.02;;;14.73;;
42338;SDS011;27993;45.392;10.918;2024-03-23T08:57:45;19.00;;;14.30;;
42338;SDS011;27993;45.392;10.918;2024-03-23T09:00:16;23.35;;;13.88;;
42338;SDS011;27993;45.392;10.918;2024-03-23T09:02:47;24.33;;;14.13;;
42338;SDS011;27993;45.392;10.918;2024-03-23T09:05:18;25.23;;;15.98;;
42338;SDS011;27993;45.392;10.918;2024-03-23T09:07:49;20.60;;;13.40;;
42338;SDS011;27993;45.392;10.918;2024-03-23T09:10:22;20.15;;;14.18;;
42338;SDS011;27993;45.392;10.918;2024-03-23T09:12:53;19.10;;;13.98;;
42338;SDS011;27993;45.392;10.918;2024-03-23T09:15:23;19.33;;;14.13;;
42338;SDS011;27993;45.392;10.918;2024-03-23T09:17:54;19.42;;;14.02;;
42338;SDS011;27993;45.392;10.918;2024-03-23T09:20:24;20.60;;;12.75;;
42338;SDS011;27993;45.392;10.918;2024-03-23T09:22:55;21.58;;;13.75;;
42338;SDS011;27993;45.392;10.918;2024-03-23T09:25:26;19.50;;;14.02;;
42338;SDS011;27993;45.392;10.918;2024-03-23T09:27:56;19.12;;;12.50;;
42338;SDS011;27993;45.392;10.918;2024-03-23T09:30:27;17.83;;;14.00;;
42338;SDS011;27993;45.392;10.918;2024-03-23T09:32:58;22.02;;;13.98;;
42338;SDS011;27993;45.392;10.918;2024-03-23T09:35:29;18.45;;;13.27;;
42338;SDS011;27993;45.392;10.918;2024-03-23T09:37:59;19.67;;;13.32;;
42338;SDS011;27993;45.392;10.918;2024-03-23T09:40:30;16.95;;;12.93;;
42338;SDS011;27993;45.392;10.918;2024-03-23T09:43:01;22.42;;;14.18;;
42338;SDS011;27993;45.392;10.918;2024-03-23T09:45:32;18.00;;;13.68;;
42338;SDS011;27993;45.392;10.918;2024-03-23T09:48:07;21.40;;;14.60;;
42338;SDS011;27993;45.392;10.918;2024-03-23T09:50:40;19.62;;;14.57;;
42338;SDS011;27993;45.392;10.918;2024-03-23T09:53:12;20.10;;;13.88;;
42338;SDS011;27993;45.392;10.918;2024-03-23T09:55:44;18.20;;;13.70;;
42338;SDS011;27993;45.392;10.918;2024-03-23T09:58:15;25.23;;;14.45;;
42338;SDS011;27993;45.392;10.918;2024-03-23T10:00:47;19.98;;;13.73;;
42338;SDS011;27993;45.392;10.918;2024-03-23T10:03:17;18.25;;;13.95;;
42338;SDS011;27993;45.392;10.918;2024-03-23T10:05:48;19.62;;;12.73;;
42338;SDS011;27993;45.392;10.918;2024-03-23T10:08:31;25.37;;;14.45;;
42338;SDS011;27993;45.392;10.918;2024-03-23T10:11:16;17.85;;;13.95;;
42338;SDS011;27993;45.392;10.918;2024-03-23T10:13:47;24.08;;;14.10;;
42338;SDS011;27993;45.392;10.918;2024-03-23T10:16:21;22.20;;;13.32;;
42338;SDS011;27993;45.392;10.918;2024-03-23T10:18:54;20.80;;;14.18;;
42338;SDS011;27993;45.392;10.918;2024-03-23T10:21:24;23.55;;;14.27;;
42338;SDS011;27993;45.392;10.918;2024-03-23T10:23:55;21.90;;;14.98;;
42338;SDS011;27993;45.392;10.918;2024-03-23T10:26:26;23.35;;;14.82;;
42338;SDS011;27993;45.392;10.918;2024-03-23T10:29:01;24.48;;;14.73;;
42338;SDS011;27993;45.392;10.918;2024-03-23T10:31:33;20.52;;;13.88;;
42338;SDS011;27993;45.392;10.918;2024-03-23T10:34:07;20.58;;;14.80;;
42338;SDS011;27993;45.392;10.918;2024-03-23T10:36:38;16.73;;;12.77;;
42338;SDS011;27993;45.392;10.918;2024-03-23T10:39:11;25.62;;;14.70;;
42338;SDS011;27993;45.392;10.918;2024-03-23T10:41:42;30.77;;;14.77;;
42338;SDS011;27993;45.392;10.918;2024-03-23T10:44:16;29.77;;;15.75;;
42338;SDS011;27993;45.392;10.918;2024-03-23T10:46:49;30.42;;;16.58;;
42338;SDS011;27993;45.392;10.918;2024-03-23T10:49:20;17.75;;;14.85;;
42338;SDS011;27993;45.392;10.918;2024-03-23T10:51:52;18.67;;;13.95;;
42338;SDS011;27993;45.392;10.918;2024-03-23T10:54:24;24.10;;;13.82;;
42338;SDS011;27993;45.392;10.918;2024-03-23T10:57:02;17.90;;;13.38;;
42338;SDS011;27993;45.392;10.918;2024-03-23T10:59:36;28.23;;;14.70;;
42338;SDS011;27993;45.392;10.918;2024-03-23T11:02:18;25.65;;;15.40;;
42338;SDS011;27993;45.392;10.918;2024-03-23T11:04:49;20.85;;;15.05;;
42338;SDS011;27993;45.392;10.918;2024-03-23T11:09:56;23.10;;;13.93;;
42338;SDS011;27993;45.392;10.918;2024-03-23T11:12:28;25.75;;;14.30;;
42338;SDS011;27993;45.392;10.918;2024-03-23T11:15:04;18.58;;;14.93;;
42338;SDS011;27993;45.392;10.918;2024-03-23T11:17:36;19.15;;;12.85;;
42338;SDS011;27993;45.392;10.918;2024-03-23T11:20:07;18.75;;;13.95;;
42338;SDS011;27993;45.392;10.918;2024-03-23T11:22:41;21.20;;;14.18;;
42338;SDS011;27993;45.392;10.918;2024-03-23T11:25:23;25.05;;;14.00;;
42338;SDS011;27993;45.392;10.918;2024-03-23T11:27:55;15.43;;;11.98;;
42338;SDS011;27993;45.392;10.918;2024-03-23T11:30:40;20.67;;;12.93;;
42338;SDS011;27993;45.392;10.918;2024-03-23T11:33:10;18.50;;;12.93;;
42338;SDS011;27993;45.392;10.918;2024-03-23T11:35:42;16.10;;;10.50;;
42338;SDS011;27993;45.392;10.918;2024-03-23T11:38:16;24.35;;;12.85;;
42338;SDS011;27993;45.392;10.918;2024-03-23T11:40:50;20.35;;;12.07;;
42338;SDS011;27993;45.392;10.918;2024-03-23T11:43:21;19.73;;;12.35;;
42338;SDS011;27993;45.392;10.918;2024-03-23T11:45:52;15.68;;;11.32;;
42338;SDS011;27993;45.392;10.918;2024-03-23T11:48:25;25.88;;;12.73;;
42338;SDS011;27993;45.392;10.918;2024-03-23T11:50:57;21.92;;;11.52;;
42338;SDS011;27993;45.392;10.918;2024-03-23T11:53:28;23.42;;;10.88;;
42338;SDS011;27993;45.392;10.918;2024-03-23T11:55:59;18.27;;;11.35;;
42338;SDS011;27993;45.392;10.918;2024-03-23T11:58:34;17.05;;;10.80;;
42338;SDS011;27993;45.392;10.918;2024-03-23T12:01:05;15.77;;;10.55;;
42338;SDS011;27993;45.392;10.918;2024-03-23T12:03:43;15.98;;;11.05;;
42338;SDS011;27993;45.392;10.918;2024-03-23T12:06:19;19.77;;;12.18;;
42338;SDS011;27993;45.392;10.918;2024-03-23T12:08:50;18.65;;;12.00;;
42338;SDS011;27993;45.392;10.918;2024-03-23T12:11:21;16.60;;;11.05;;
42338;SDS011;27993;45.392;10.918;2024-03-23T12:13:52;22.05;;;12.68;;
42338;SDS011;27993;45.392;10.918;2024-03-23T12:16:24;17.62;;;11.48;;
42338;SDS011;27993;45.392;10.918;2024-03-23T12:18:57;18.80;;;11.82;;
42338;SDS011;27993;45.392;10.918;2024-03-23T12:21:35;17.70;;;11.05;;
42338;SDS011;27993;45.392;10.918;2024-03-23T12:24:06;21.90;;;10.75;;
42338;SDS011;27993;45.392;10.918;2024-03-23T12:26:37;16.85;;;11.25;;
42338;SDS011;27993;45.392;10.918;2024-03-23T12:29:09;19.00;;;12.07;;
42338;SDS011;27993;45.392;10.918;2024-03-23T12:31:40;22.48;;;11.40;;
42338;SDS011;27993;45.392;10.918;2024-03-23T12:34:11;17.73;;;11.12;;
42338;SDS011;27993;45.392;10.918;2024-03-23T12:36:41;18.00;;;11.27;;
42338;SDS011;27993;45.392;10.918;2024-03-23T12:39:12;17.37;;;11.40;;
42338;SDS011;27993;45.392;10.918;2024-03-23T12:41:42;22.27;;;12.70;;
42338;SDS011;27993;45.392;10.918;2024-03-23T12:44:13;18.48;;;12.20;;
42338;SDS011;27993;45.392;10.918;2024-03-23T12:46:45;27.95;;;11.05;;
42338;SDS011;27993;45.392;10.918;2024-03-23T12:49:16;17.02;;;11.48;;
42338;SDS011;27993;45.392;10.918;2024-03-23T12:51:54;19.58;;;11.68;;
42338;SDS011;27993;45.392;10.918;2024-03-23T12:54:28;19.87;;;11.02;;
42338;SDS011;27993;45.392;10.918;2024-03-23T12:57:00;18.33;;;10.63;;
42338;SDS011;27993;45.392;10.918;2024-03-23T12:59:31;17.92;;;12.20;;
42338;SDS011;27993;45.392;10.918;2024-03-23T13:02:02;25.62;;;13.32;;
42338;SDS011;27993;45.392;10.918;2024-03-23T13:04:32;19.15;;;10.10;;
42338;SDS011;27993;45.392;10.918;2024-03-23T13:09:35;17.87;;;11.95;;
42338;SDS011;27993;45.392;10.918;2024-03-23T13:14:36;21.10;;;12.50;;
42338;SDS011;27993;45.392;10.918;2024-03-23T13:19:40;28.33;;;10.30;;
42338;SDS011;27993;45.392;10.918;2024-03-23T13:24:42;16.60;;;9.50;;
42338;SDS011;27993;45.392;10.918;2024-03-23T13:29:43;15.57;;;9.83;;
42338;SDS011;27993;45.392;10.918;2024-03-23T13:32:16;14.02;;;9.38;;
42338;SDS011;27993;45.392;10.918;2024-03-23T13:37:20;20.58;;;11.38;;
42338;SDS011;27993;45.392;10.918;2024-03-23T13:42:21;19.60;;;11.50;;
42338;SDS011;27993;45.392;10.918;2024-03-23T13:44:55;18.10;;;10.52;;
42338;SDS011;27993;45.392;10.918;2024-03-23T13:49:56;20.53;;;10.87;;
42338;SDS011;27993;45.392;10.918;2024-03-23T13:52:30;16.70;;;11.32;;
42338;SDS011;27993;45.392;10.918;2024-03-23T13:55:01;17.92;;;11.35;;
42338;SDS011;27993;45.392;10.918;2024-03-23T14:00:02;18.67;;;10.93;;
42338;SDS011;27993;45.392;10.918;2024-03-23T14:02:37;16.45;;;10.98;;
42338;SDS011;27993;45.392;10.918;2024-03-23T14:05:07;15.10;;;11.23;;
42338;SDS011;27993;45.392;10.918;2024-03-23T14:10:08;14.70;;;10.43;;
42338;SDS011;27993;45.392;10.918;2024-03-23T14:12:45;25.98;;;11.30;;
42338;SDS011;27993;45.392;10.918;2024-03-23T14:15:15;16.42;;;10.80;;
42338;SDS011;27993;45.392;10.918;2024-03-23T14:20:16;17.67;;;10.87;;
42338;SDS011;27993;45.392;10.918;2024-03-23T14:22:48;20.90;;;12.27;;
42338;SDS011;27993;45.392;10.918;2024-03-23T14:25:18;20.37;;;11.88;;
42338;SDS011;27993;45.392;10.918;2024-03-23T14:27:50;20.77;;;12.02;;
42338;SDS011;27993;45.392;10.918;2024-03-23T14:30:20;25.02;;;13.02;;
42338;SDS011;27993;45.392;10.918;2024-03-23T14:32:51;26.83;;;13.23;;
42338;SDS011;27993;45.392;10.918;2024-03-23T14:37:53;19.52;;;11.55;;
42338;SDS011;27993;45.392;10.918;2024-03-23T14:40:24;19.33;;;11.85;;
42338;SDS011;27993;45.392;10.918;2024-03-23T14:42:57;20.10;;;12.05;;
42338;SDS011;27993;45.392;10.918;2024-03-23T14:45:28;12.98;;;9.27;;
42338;SDS011;27993;45.392;10.918;2024-03-23T14:47:58;22.02;;;13.05;;
42338;SDS011;27993;45.392;10.918;2024-03-23T14:50:32;21.20;;;11.32;;
42338;SDS011;27993;45.392;10.918;2024-03-23T14:53:04;20.45;;;11.88;;
42338;SDS011;27993;45.392;10.918;2024-03-23T14:55:35;28.05;;;11.80;;
42338;SDS011;27993;45.392;10.918;2024-03-23T14:58:05;27.80;;;14.48;;
42338;SDS011;27993;45.392;10.918;2024-03-23T15:00:36;23.23;;;12.93;;
42338;SDS011;27993;45.392;10.918;2024-03-23T15:03:09;18.30;;;11.90;;
42338;SDS011;27993;45.392;10.918;2024-03-23T15:05:40;21.95;;;13.45;;
42338;SDS011;27993;45.392;10.918;2024-03-23T15:08:11;23.50;;;12.93;;
42338;SDS011;27993;45.392;10.918;2024-03-23T15:10:41;20.88;;;13.10;;
42338;SDS011;27993;45.392;10.918;2024-03-23T15:13:12;17.95;;;11.18;;
42338;SDS011;27993;45.392;10.918;2024-03-23T15:18:14;32.78;;;12.23;;
42338;SDS011;27993;45.392;10.918;2024-03-23T15:20:55;14.25;;;9.95;;
42338;SDS011;27993;45.392;10.918;2024-03-23T15:23:27;21.58;;;12.30;;
42338;SDS011;27993;45.392;10.918;2024-03-23T15:25:59;24.00;;;11.15;;
42338;SDS011;27993;45.392;10.918;2024-03-23T15:28:31;16.17;;;10.43;;
42338;SDS011;27993;45.392;10.918;2024-03-23T15:31:08;17.95;;;12.40;;
42338;SDS011;27993;45.392;10.918;2024-03-23T15:33:39;17.67;;;9.25;;
42338;SDS011;27993;45.392;10.918;2024-03-23T15:36:10;16.25;;;10.32;;
42338;SDS011;27993;45.392;10.918;2024-03-23T15:38:40;16.87;;;10.13;;
42338;SDS011;27993;45.392;10.918;2024-03-23T15:41:12;17.10;;;9.90;;
42338;SDS011;27993;45.392;10.918;2024-03-23T15:43:43;17.15;;;11.15;;
42338;SDS011;27993;45.392;10.918;2024-03-23T15:46:13;20.27;;;11.23;;
42338;SDS011;27993;45.392;10.918;2024-03-23T15:48:45;19.23;;;12.77;;
42338;SDS011;27993;45.392;10.918;2024-03-23T15:51:17;21.12;;;11.82;;
42338;SDS011;27993;45.392;10.918;2024-03-23T15:56:20;16.60;;;11.05;;
42338;SDS011;27993;45.392;10.918;2024-03-23T15:58:51;17.00;;;12.10;;
42338;SDS011;27993;45.392;10.918;2024-03-23T16:01:21;19.33;;;12.10;;
42338;SDS011;27993;45.392;10.918;2024-03-23T16:03:52;16.83;;;11.60;;
42338;SDS011;27993;45.392;10.918;2024-03-23T16:06:22;19.30;;;12.70;;
42338;SDS011;27993;45.392;10.918;2024-03-23T16:08:53;19.67;;;11.55;;
42338;SDS011;27993;45.392;10.918;2024-03-23T16:11:23;20.65;;;11.95;;